createdAt,value
2022-12-03T00:00:19.755Z,101657.00
2022-12-03T00:02:47.562Z,101658.00
2022-12-03T00:05:15.342Z,101659.00
2022-12-03T00:07:43.043Z,101652.00
2022-12-03T00:10:11.384Z,101663.00
2022-12-03T00:12:39.101Z,101664.00
2022-12-03T00:15:09.932Z,101657.00
2022-12-03T00:17:37.718Z,101660.00
2022-12-03T00:20:06.757Z,101661.00
2022-12-03T00:22:34.434Z,101655.00
2022-12-03T00:25:02.087Z,101652.00
2022-12-03T00:27:29.776Z,101652.00
2022-12-03T00:29:57.465Z,101655.00
2022-12-03T00:32:26.464Z,101660.00
2022-12-03T00:34:54.386Z,101652.00
2022-12-03T00:37:22.229Z,101656.00
2022-12-03T00:39:50.366Z,101659.00
2022-12-03T00:42:18.076Z,101655.00
2022-12-03T00:44:45.741Z,101641.00
2022-12-03T00:47:13.522Z,101635.00
2022-12-03T00:49:42.648Z,101646.00
2022-12-03T00:52:10.295Z,101642.00
2022-12-03T00:54:38.002Z,101653.00
2022-12-03T00:57:05.685Z,101652.00
2022-12-03T00:59:33.384Z,101644.00
2022-12-03T01:02:01.083Z,101648.00
2022-12-03T01:04:28.891Z,101639.00
2022-12-03T01:06:57.938Z,101641.00
2022-12-03T01:09:25.609Z,101648.00
2022-12-03T01:11:53.427Z,101646.00
2022-12-03T01:14:21.397Z,101654.00
2022-12-03T01:16:49.329Z,101659.00
2022-12-03T01:19:17.873Z,101659.00
2022-12-03T01:21:46.606Z,101661.00
2022-12-03T01:24:16.016Z,101659.00
2022-12-03T01:26:43.738Z,101658.00
2022-12-03T01:29:11.516Z,101659.00
2022-12-03T01:31:56.913Z,101659.00
2022-12-03T01:34:24.886Z,101660.00
2022-12-03T01:36:53.366Z,101659.00
2022-12-03T01:39:22.387Z,101656.00
2022-12-03T01:41:52.168Z,101660.00
2022-12-03T01:44:24.142Z,101652.00
2022-12-03T01:46:53.637Z,101653.00
2022-12-03T01:49:24.320Z,101655.00
2022-12-03T01:51:53.491Z,101655.00
2022-12-03T01:54:27.189Z,101663.00
2022-12-03T01:56:56.355Z,101662.00
2022-12-03T01:59:31.913Z,101668.00
2022-12-03T02:02:00.278Z,101653.00
2022-12-03T02:04:28.218Z,101657.00
2022-12-03T02:06:55.992Z,101668.00
2022-12-03T02:09:25.016Z,101660.00
2022-12-03T02:11:53.429Z,101650.00
2022-12-03T02:14:22.812Z,101656.00
2022-12-03T02:16:50.613Z,101658.00
2022-12-03T02:19:25.184Z,101651.00
2022-12-03T02:22:00.945Z,101646.00
2022-12-03T02:24:36.730Z,101664.00
2022-12-03T02:27:05.773Z,101663.00
2022-12-03T02:29:33.478Z,101659.00
2022-12-03T02:32:01.277Z,101642.00
2022-12-03T02:34:40.400Z,101651.00
2022-12-03T02:37:12.954Z,101649.00
2022-12-03T02:39:45.286Z,101651.00
2022-12-03T02:42:31.971Z,101655.00
2022-12-03T02:45:05.307Z,101660.00
2022-12-03T02:47:34.805Z,101664.00
2022-12-03T02:50:02.993Z,101652.00
2022-12-03T02:52:31.149Z,101654.00
2022-12-03T02:54:59.333Z,101644.00
2022-12-03T02:57:28.417Z,101647.00
2022-12-03T02:59:56.347Z,101649.00
2022-12-03T03:02:24.215Z,101650.00
2022-12-03T03:04:52.441Z,101654.00
2022-12-03T03:07:20.386Z,101641.00
2022-12-03T03:09:48.311Z,101646.00
2022-12-03T03:12:16.063Z,101655.00
2022-12-03T03:14:45.174Z,101653.00
2022-12-03T03:17:12.849Z,101652.00
2022-12-03T03:19:40.549Z,101647.00
2022-12-03T03:22:08.218Z,101647.00
2022-12-03T03:24:35.919Z,101646.00
2022-12-03T03:27:03.637Z,101655.00
2022-12-03T03:29:32.229Z,101654.00
2022-12-03T03:32:02.254Z,101661.00
2022-12-03T03:34:31.249Z,101627.00
2022-12-03T03:36:59.053Z,101640.00
2022-12-03T03:39:26.767Z,101641.00
2022-12-03T03:41:54.423Z,101639.00
2022-12-03T03:44:22.351Z,101639.00
2022-12-03T03:46:50.175Z,101643.00
2022-12-03T03:49:19.243Z,101631.00
2022-12-03T03:51:47.476Z,101632.00
2022-12-03T03:54:15.679Z,101636.00
2022-12-03T03:56:43.532Z,101636.00
2022-12-03T03:59:11.261Z,101632.00
2022-12-03T04:01:39.145Z,101627.00
2022-12-03T04:04:15.170Z,101625.00
2022-12-03T04:06:44.257Z,101643.00
2022-12-03T04:09:11.992Z,101631.00
2022-12-03T04:11:57.027Z,101632.00
2022-12-03T04:14:24.888Z,101642.00
2022-12-03T04:16:52.771Z,101628.00
2022-12-03T04:19:20.457Z,101642.00
2022-12-03T04:22:07.047Z,101644.00
2022-12-03T04:24:34.697Z,101636.00
2022-12-03T04:27:20.000Z,101639.00
2022-12-03T04:29:47.646Z,101629.00
2022-12-03T04:32:32.983Z,101623.00
2022-12-03T04:35:18.512Z,101637.00
2022-12-03T04:37:47.562Z,101630.00
2022-12-03T04:40:29.229Z,101632.00
2022-12-03T04:42:56.867Z,101638.00
2022-12-03T04:45:24.751Z,101624.00
2022-12-03T04:47:52.411Z,101627.00
2022-12-03T04:50:20.098Z,101625.00
2022-12-03T04:52:49.110Z,101631.00
2022-12-03T04:55:16.872Z,101630.00
2022-12-03T04:57:44.514Z,101634.00
2022-12-03T05:00:13.591Z,101632.00
2022-12-03T05:02:41.431Z,101623.00
2022-12-03T05:05:10.753Z,101626.00
2022-12-03T05:07:38.800Z,101627.00
2022-12-03T05:10:09.071Z,101628.00
2022-12-03T05:12:36.762Z,101621.00
2022-12-03T05:15:05.414Z,101624.00
2022-12-03T05:17:33.332Z,101622.00
2022-12-03T05:20:18.880Z,101626.00
2022-12-03T05:22:46.623Z,101614.00
2022-12-03T05:25:15.844Z,101612.00
2022-12-03T05:27:43.531Z,101621.00
2022-12-03T05:30:11.898Z,101612.00
2022-12-03T05:32:39.584Z,101613.00
2022-12-03T05:35:07.851Z,101618.00
2022-12-03T05:37:35.556Z,101616.00
2022-12-03T05:40:03.358Z,101614.00
2022-12-03T05:42:49.743Z,101613.00
2022-12-03T05:45:18.518Z,101612.00
2022-12-03T05:47:46.284Z,101612.00
2022-12-03T05:50:14.121Z,101607.00
2022-12-03T05:52:41.833Z,101604.00
2022-12-03T05:55:10.363Z,101621.00
2022-12-03T05:57:39.670Z,101597.00
2022-12-03T06:00:10.039Z,101604.00
2022-12-03T06:02:37.814Z,101619.00
2022-12-03T06:05:06.402Z,101614.00
2022-12-03T06:07:34.123Z,101607.00
2022-12-03T06:10:01.935Z,101621.00
2022-12-03T06:12:29.614Z,101615.00
2022-12-03T06:14:59.558Z,101608.00
2022-12-03T06:17:27.248Z,101613.00
2022-12-03T06:19:54.930Z,101600.00
2022-12-03T06:22:22.603Z,101615.00
2022-12-03T06:24:50.659Z,101615.00
2022-12-03T06:27:18.693Z,101615.00
2022-12-03T06:29:46.362Z,101619.00
2022-12-03T06:32:15.406Z,101596.00
2022-12-03T06:34:43.144Z,101606.00
2022-12-03T06:37:10.850Z,101614.00
2022-12-03T06:39:38.562Z,101621.00
2022-12-03T06:42:06.447Z,101605.00
2022-12-03T06:44:34.188Z,101617.00
2022-12-03T06:47:01.918Z,101615.00
2022-12-03T06:49:30.968Z,101619.00
2022-12-03T06:51:58.669Z,101620.00
2022-12-03T06:54:26.367Z,101616.00
2022-12-03T06:56:54.230Z,101617.00
2022-12-03T06:59:21.873Z,101607.00
2022-12-03T07:01:49.729Z,101607.00
2022-12-03T07:04:17.492Z,101617.00
2022-12-03T07:06:46.507Z,101612.00
2022-12-03T07:09:16.296Z,101614.00
2022-12-03T07:11:44.114Z,101614.00
2022-12-03T07:14:12.146Z,101598.00
2022-12-03T07:16:40.318Z,101606.00
2022-12-03T07:19:08.439Z,101600.00
2022-12-03T07:21:36.290Z,101592.00
2022-12-03T07:24:05.650Z,101586.00
2022-12-03T07:26:33.731Z,101600.00
2022-12-03T07:29:01.486Z,101595.00
2022-12-03T07:31:29.389Z,101597.00
2022-12-03T07:33:57.096Z,101599.00
2022-12-03T07:36:24.870Z,101596.00
2022-12-03T07:38:52.589Z,101597.00
2022-12-03T07:41:21.596Z,101607.00
2022-12-03T07:43:49.299Z,101592.00
2022-12-03T07:46:17.034Z,101594.00
2022-12-03T07:48:44.797Z,101596.00
2022-12-03T07:51:15.160Z,101594.00
2022-12-03T07:53:43.378Z,101588.00
2022-12-03T07:56:11.207Z,101592.00
2022-12-03T07:58:40.274Z,101579.00
2022-12-03T08:01:08.067Z,101581.00
2022-12-03T08:03:35.841Z,101585.00
2022-12-03T08:06:03.533Z,101578.00
2022-12-03T08:08:31.225Z,101589.00
2022-12-03T08:10:58.899Z,101585.00
2022-12-03T08:13:26.579Z,101595.00
2022-12-03T08:15:56.964Z,101572.00
2022-12-03T08:18:24.713Z,101576.00
2022-12-03T08:20:53.163Z,101581.00
2022-12-03T08:23:22.822Z,101579.00
2022-12-03T08:25:52.274Z,101588.00
2022-12-03T08:28:21.558Z,101580.00
2022-12-03T08:31:02.466Z,101578.00
2022-12-03T08:33:33.626Z,101587.00
2022-12-03T08:36:02.808Z,101581.00
2022-12-03T08:38:30.773Z,101585.00
2022-12-03T08:40:59.075Z,101579.00
2022-12-03T08:43:28.586Z,101584.00
2022-12-03T08:45:57.931Z,101576.00
2022-12-03T08:48:29.636Z,101576.00
2022-12-03T08:50:58.993Z,101580.00
2022-12-03T08:53:37.749Z,101572.00
2022-12-03T08:56:14.247Z,101573.00
2022-12-03T08:58:44.389Z,101578.00
2022-12-03T09:01:34.898Z,101573.00
2022-12-03T09:04:20.428Z,101581.00
2022-12-03T09:06:48.280Z,101570.00
2022-12-03T09:09:16.033Z,101584.00
2022-12-03T09:11:44.230Z,101577.00
2022-12-03T09:14:18.104Z,101573.00
2022-12-03T09:16:46.412Z,101572.00
2022-12-03T09:19:16.113Z,101568.00
2022-12-03T09:21:43.800Z,101566.00
2022-12-03T09:24:11.570Z,101574.00
2022-12-03T09:26:39.445Z,101566.00
2022-12-03T09:29:11.915Z,101570.00
2022-12-03T09:31:40.396Z,101569.00
2022-12-03T09:34:08.321Z,101569.00
2022-12-03T09:36:37.393Z,101572.00
2022-12-03T09:39:05.315Z,101581.00
2022-12-03T09:41:33.104Z,101566.00
2022-12-03T09:44:05.184Z,101572.00
2022-12-03T09:46:34.839Z,101561.00
2022-12-03T09:49:03.272Z,101567.00
2022-12-03T09:51:33.499Z,101557.00
2022-12-03T09:54:03.844Z,101560.00
2022-12-03T09:56:32.396Z,101565.00
2022-12-03T09:59:00.609Z,101559.00
2022-12-03T10:01:30.562Z,101563.00
2022-12-03T10:03:59.459Z,101564.00
2022-12-03T10:06:27.304Z,101565.00
2022-12-03T10:08:56.292Z,101550.00
2022-12-03T10:11:27.123Z,101553.00
2022-12-03T10:13:56.363Z,101544.00
2022-12-03T10:16:24.796Z,101542.00
2022-12-03T10:18:54.436Z,101552.00
2022-12-03T10:21:26.648Z,101541.00
2022-12-03T10:24:19.008Z,101538.00
2022-12-03T10:26:49.653Z,101535.00
2022-12-03T10:29:20.296Z,101534.00
2022-12-03T10:31:56.827Z,101533.00
2022-12-03T10:34:31.508Z,101522.00
2022-12-03T10:37:11.340Z,101519.00
2022-12-03T10:39:57.553Z,101522.00
2022-12-03T10:42:27.456Z,101512.00
2022-12-03T10:45:16.890Z,101518.00
2022-12-03T10:47:45.895Z,101516.00
2022-12-03T10:50:19.399Z,101512.00
2022-12-03T10:52:47.889Z,101515.00
2022-12-03T10:55:16.902Z,101504.00
2022-12-03T10:57:46.992Z,101502.00
2022-12-03T11:00:17.368Z,101497.00
2022-12-03T11:02:45.492Z,101506.00
2022-12-03T11:05:15.289Z,101508.00
2022-12-03T11:07:43.789Z,101499.00
2022-12-03T11:10:57.178Z,101442.00
2022-12-03T11:13:48.130Z,101451.00
2022-12-03T11:17:10.136Z,101442.00
2022-12-03T11:19:49.809Z,101466.00
2022-12-03T11:22:46.002Z,101477.00
2022-12-03T11:26:06.373Z,101487.00
2022-12-03T11:29:00.774Z,101446.00
2022-12-03T11:31:41.718Z,101477.00
2022-12-03T11:34:56.482Z,101486.00
2022-12-03T11:37:31.268Z,101477.00
2022-12-03T11:44:54.178Z,101483.00
2022-12-03T12:04:48.096Z,101421.00
2022-12-03T12:12:01.706Z,101451.00
2022-12-03T12:14:54.268Z,101460.00
2022-12-03T12:22:05.561Z,101447.00
2022-12-03T12:49:37.127Z,101428.00
2022-12-03T12:56:57.554Z,101415.00
2022-12-03T13:06:58.378Z,101417.00
2022-12-03T13:09:27.903Z,101405.00
2022-12-03T13:11:58.328Z,101398.00
2022-12-03T13:14:27.632Z,101408.00
2022-12-03T13:16:57.603Z,101398.00
2022-12-03T13:19:27.420Z,101401.00
2022-12-03T13:21:56.961Z,101399.00
2022-12-03T13:24:32.689Z,101400.00
2022-12-03T13:27:03.496Z,101399.00
2022-12-03T13:29:33.174Z,101380.00
2022-12-03T13:32:03.637Z,101387.00
2022-12-03T13:34:33.738Z,101395.00
2022-12-03T13:37:02.633Z,101393.00
2022-12-03T13:39:34.960Z,101389.00
2022-12-03T13:42:36.039Z,101395.00
2022-12-03T13:45:07.642Z,101378.00
2022-12-03T13:47:35.329Z,101389.00
2022-12-03T13:50:08.314Z,101384.00
2022-12-03T13:52:36.124Z,101384.00
2022-12-03T13:55:08.222Z,101382.00
2022-12-03T13:57:35.959Z,101396.00
2022-12-03T14:00:04.657Z,101389.00
2022-12-03T14:02:32.696Z,101393.00
2022-12-03T14:05:00.939Z,101388.00
2022-12-03T14:07:28.909Z,101386.00
2022-12-03T14:09:57.077Z,101375.00
2022-12-03T14:12:33.432Z,101371.00
2022-12-03T14:15:01.351Z,101387.00
2022-12-03T14:17:29.485Z,101377.00
2022-12-03T14:19:57.423Z,101371.00
2022-12-03T14:22:25.579Z,101377.00
2022-12-03T14:24:53.791Z,101377.00
2022-12-03T14:27:22.353Z,101365.00
2022-12-03T14:29:52.493Z,101356.00
2022-12-03T14:32:20.520Z,101358.00
2022-12-03T14:34:48.210Z,101340.00
2022-12-03T14:37:16.078Z,101346.00
2022-12-03T14:39:43.762Z,101342.00
2022-12-03T14:42:14.434Z,101360.00
2022-12-03T14:44:43.187Z,101352.00
2022-12-03T14:47:12.573Z,101362.00
2022-12-03T14:49:40.821Z,101361.00
2022-12-03T14:52:12.142Z,101362.00
2022-12-03T14:54:41.978Z,101365.00
2022-12-03T14:57:11.242Z,101375.00
2022-12-03T14:59:38.950Z,101375.00
2022-12-03T15:02:06.679Z,101368.00
2022-12-03T15:04:35.816Z,101366.00
2022-12-03T15:07:03.581Z,101371.00
2022-12-03T15:09:31.370Z,101379.00
2022-12-03T15:11:59.896Z,101374.00
2022-12-03T15:14:27.748Z,101368.00
2022-12-03T15:16:55.667Z,101363.00
2022-12-03T15:19:23.444Z,101364.00
2022-12-03T15:21:52.442Z,101366.00
2022-12-03T15:24:20.111Z,101377.00
2022-12-03T15:26:47.790Z,101370.00
2022-12-03T15:29:15.464Z,101364.00
2022-12-03T15:31:43.158Z,101364.00
2022-12-03T15:34:10.874Z,101366.00
2022-12-03T15:36:38.596Z,101364.00
2022-12-03T15:39:07.724Z,101366.00
2022-12-03T15:41:35.369Z,101366.00
2022-12-03T15:44:03.352Z,101366.00
2022-12-03T15:46:32.222Z,101366.00
2022-12-03T15:49:00.082Z,101362.00
2022-12-03T15:51:27.889Z,101364.00
2022-12-03T15:53:55.609Z,101365.00
2022-12-03T15:56:24.629Z,101342.00
2022-12-03T15:58:53.448Z,101370.00
2022-12-03T16:01:21.229Z,101374.00
2022-12-03T16:03:48.979Z,101364.00
2022-12-03T16:06:18.133Z,101368.00
2022-12-03T16:08:46.039Z,101375.00
2022-12-03T16:11:13.807Z,101372.00
2022-12-03T16:13:42.873Z,101365.00
2022-12-03T16:16:10.628Z,101368.00
2022-12-03T16:18:38.378Z,101368.00
2022-12-03T16:21:06.213Z,101364.00
2022-12-03T16:23:33.993Z,101372.00
2022-12-03T16:26:01.683Z,101351.00
2022-12-03T16:28:29.391Z,101365.00
2022-12-03T16:30:58.499Z,101356.00
2022-12-03T16:33:28.006Z,101366.00
2022-12-03T16:35:55.943Z,101362.00
2022-12-03T16:38:23.858Z,101367.00
2022-12-03T16:40:51.569Z,101364.00
2022-12-03T16:43:19.562Z,101366.00
2022-12-03T16:46:09.872Z,101360.00
2022-12-03T16:48:38.945Z,101366.00
2022-12-03T16:51:06.936Z,101329.00
2022-12-03T16:53:35.052Z,101357.00
2022-12-03T16:56:02.927Z,101355.00
2022-12-03T16:58:30.674Z,101349.00
2022-12-03T17:00:58.363Z,101358.00
2022-12-03T17:03:32.048Z,101346.00
2022-12-03T17:06:03.289Z,101344.00
2022-12-03T17:08:31.473Z,101350.00
2022-12-03T17:10:59.301Z,101344.00
2022-12-03T17:13:27.067Z,101357.00
2022-12-03T17:15:54.829Z,101347.00
2022-12-03T17:18:22.864Z,101351.00
2022-12-03T17:20:50.663Z,101336.00
2022-12-03T17:23:19.726Z,101340.00
2022-12-03T17:25:47.425Z,101337.00
2022-12-03T17:28:15.193Z,101350.00
2022-12-03T17:30:44.126Z,101345.00
2022-12-03T17:33:11.905Z,101346.00
2022-12-03T17:35:39.642Z,101341.00
2022-12-03T17:38:09.023Z,101349.00
2022-12-03T17:40:38.202Z,101340.00
2022-12-03T17:43:05.931Z,101348.00
2022-12-03T17:45:33.626Z,101349.00
2022-12-03T17:48:01.473Z,101338.00
2022-12-03T17:50:29.240Z,101337.00
2022-12-03T17:52:57.003Z,101336.00
2022-12-03T17:55:35.963Z,101342.00
2022-12-03T17:58:07.556Z,101337.00
2022-12-03T18:00:35.386Z,101347.00
2022-12-03T18:03:03.131Z,101331.00
2022-12-03T18:05:30.916Z,101343.00
2022-12-03T18:07:58.621Z,101338.00
2022-12-03T18:10:26.407Z,101345.00
2022-12-03T18:12:59.829Z,101332.00
2022-12-03T18:15:31.106Z,101336.00
2022-12-03T18:17:58.932Z,101332.00
2022-12-03T18:20:27.114Z,101336.00
2022-12-03T18:22:54.881Z,101338.00
2022-12-03T18:25:22.616Z,101318.00
2022-12-03T18:27:50.294Z,101319.00
2022-12-03T18:30:18.406Z,101317.00
2022-12-03T18:32:47.760Z,101328.00
2022-12-03T18:35:15.548Z,101327.00
2022-12-03T18:37:43.340Z,101320.00
2022-12-03T18:40:17.699Z,101321.00
2022-12-03T18:42:45.617Z,101329.00
2022-12-03T18:45:14.767Z,101323.00
2022-12-03T18:47:42.839Z,101314.00
2022-12-03T18:50:12.870Z,101319.00
2022-12-03T18:52:40.758Z,101326.00
2022-12-03T18:55:09.748Z,101324.00
2022-12-03T18:57:37.397Z,101316.00
2022-12-03T19:00:13.087Z,101320.00
2022-12-03T19:05:30.970Z,101326.00
2022-12-03T19:07:58.867Z,101319.00
2022-12-03T19:10:27.019Z,101309.00
2022-12-03T19:12:54.722Z,101314.00
2022-12-03T19:15:22.814Z,101312.00
2022-12-03T19:17:51.028Z,101308.00
2022-12-03T19:20:19.064Z,101306.00
2022-12-03T19:22:48.199Z,101308.00
2022-12-03T19:25:16.223Z,101312.00
2022-12-03T19:27:44.465Z,101307.00
2022-12-03T19:30:13.049Z,101322.00
2022-12-03T19:32:40.726Z,101308.00
2022-12-03T19:35:11.330Z,101306.00
2022-12-03T19:37:39.230Z,101305.00
2022-12-03T19:40:11.255Z,101316.00
2022-12-03T19:42:40.280Z,101308.00
2022-12-03T19:45:08.871Z,101305.00
2022-12-03T19:47:37.216Z,101305.00
2022-12-03T19:50:05.987Z,101308.00
2022-12-03T19:52:36.096Z,101302.00
2022-12-03T19:55:03.873Z,101307.00
2022-12-03T19:57:32.894Z,101300.00
2022-12-03T20:00:01.143Z,101305.00
2022-12-03T20:02:28.913Z,101310.00
2022-12-03T20:04:56.833Z,101295.00
2022-12-03T20:07:24.570Z,101306.00
2022-12-03T20:09:52.801Z,101304.00
2022-12-03T20:12:20.690Z,101302.00
2022-12-03T20:14:50.159Z,101298.00
2022-12-03T20:17:17.843Z,101307.00
2022-12-03T20:19:45.573Z,101302.00
2022-12-03T20:22:13.258Z,101317.00
2022-12-03T20:24:40.978Z,101311.00
2022-12-03T20:27:08.702Z,101309.00
2022-12-03T20:29:36.393Z,101312.00
2022-12-03T20:32:06.996Z,101311.00
2022-12-03T20:34:35.835Z,101317.00
2022-12-03T20:37:03.676Z,101313.00
2022-12-03T20:39:31.368Z,101313.00
2022-12-03T20:41:59.093Z,101314.00
2022-12-03T20:44:26.960Z,101313.00
2022-12-03T20:46:54.646Z,101314.00
2022-12-03T20:49:24.224Z,101309.00
2022-12-03T20:51:52.168Z,101304.00
2022-12-03T20:54:19.937Z,101291.00
2022-12-03T20:56:47.652Z,101306.00
2022-12-03T20:59:16.912Z,101303.00
2022-12-03T21:01:45.491Z,101316.00
2022-12-03T21:04:14.602Z,101302.00
2022-12-03T21:06:43.706Z,101308.00
2022-12-03T21:09:13.101Z,101309.00
2022-12-03T21:11:42.503Z,101310.00
2022-12-03T21:14:12.046Z,101305.00
2022-12-03T21:19:29.844Z,101299.00
2022-12-03T21:22:01.364Z,101294.00
2022-12-03T21:24:29.882Z,101305.00
2022-12-03T21:26:57.813Z,101301.00
2022-12-03T21:29:25.812Z,101291.00
2022-12-03T21:31:53.688Z,101284.00
2022-12-03T21:34:21.385Z,101298.00
2022-12-03T21:36:49.154Z,101299.00
2022-12-03T21:39:18.704Z,101292.00
2022-12-03T21:42:22.328Z,101306.00
2022-12-03T21:44:34.970Z,101298.00
2022-12-03T21:47:10.312Z,101307.00
2022-12-03T21:49:42.221Z,101297.00
2022-12-03T21:52:10.172Z,101303.00
2022-12-03T21:54:39.225Z,101293.00
2022-12-03T21:57:06.942Z,101299.00
2022-12-03T21:59:34.696Z,101299.00
2022-12-03T22:02:02.545Z,101307.00
2022-12-03T22:04:30.397Z,101303.00
2022-12-03T22:06:58.075Z,101301.00
2022-12-03T22:09:26.958Z,101302.00
2022-12-03T22:11:59.149Z,101300.00
2022-12-03T22:14:27.775Z,101302.00
2022-12-03T22:16:55.550Z,101297.00
2022-12-03T22:19:24.079Z,101302.00
2022-12-03T22:21:51.891Z,101283.00
2022-12-03T22:24:19.969Z,101299.00
2022-12-03T22:26:48.067Z,101301.00
2022-12-03T22:29:17.083Z,101289.00
2022-12-03T22:31:44.819Z,101290.00
2022-12-03T22:34:12.525Z,101288.00
2022-12-03T22:36:40.173Z,101296.00
2022-12-03T22:39:07.917Z,101288.00
2022-12-03T22:41:35.615Z,101288.00
2022-12-03T22:44:03.264Z,101283.00
2022-12-03T22:46:32.579Z,101283.00
2022-12-03T22:49:06.442Z,101284.00
2022-12-03T22:51:35.692Z,101286.00
2022-12-03T22:54:03.415Z,101279.00
2022-12-03T22:56:31.922Z,101280.00
2022-12-03T22:59:00.103Z,101278.00
2022-12-03T23:01:29.708Z,101265.00
2022-12-03T23:03:59.028Z,101283.00
2022-12-03T23:06:27.387Z,101272.00
2022-12-03T23:08:55.800Z,101276.00
2022-12-03T23:11:24.012Z,101270.00
2022-12-03T23:13:51.736Z,101270.00
2022-12-03T23:16:21.285Z,101262.00
2022-12-03T23:18:49.450Z,101273.00
2022-12-03T23:21:27.073Z,101264.00
2022-12-03T23:23:57.004Z,101269.00
2022-12-03T23:26:24.699Z,101263.00
2022-12-03T23:28:52.476Z,101266.00
2022-12-03T23:31:22.982Z,101257.00
2022-12-03T23:33:51.548Z,101258.00
2022-12-03T23:36:21.488Z,101255.00
2022-12-03T23:38:49.492Z,101255.00
2022-12-03T23:41:19.535Z,101256.00
2022-12-03T23:43:47.561Z,101260.00
2022-12-03T23:46:16.818Z,101256.00
2022-12-03T23:48:45.334Z,101258.00
2022-12-03T23:51:15.344Z,101256.00
2022-12-03T23:53:44.740Z,101257.00
2022-12-03T23:56:15.466Z,101237.00
2022-12-03T23:58:43.875Z,101242.00
